sensor_id;sensor_type;location;lat;lon;timestamp;pressure;altitude;pressure_sealevel;temperature;humidity
75455;BME280;64035;48.358;2.122;2023-03-14T00:00:13;98767.03;;;10.45;83.57
75455;BME280;64035;48.358;2.122;2023-03-14T00:01:18;98759.34;;;10.44;83.51
75455;BME280;64035;48.358;2.122;2023-03-14T00:02:23;98765.28;;;10.43;83.53
75455;BME280;64035;48.358;2.122;2023-03-14T00:03:28;98753.38;;;10.45;83.51
75455;BME280;64035;48.358;2.122;2023-03-14T00:04:32;98760.22;;;10.44;83.69
75455;BME280;64035;48.358;2.122;2023-03-14T00:05:34;98755.09;;;10.44;83.61
75455;BME280;64035;48.358;2.122;2023-03-14T00:06:37;98745.69;;;10.45;83.67
75455;BME280;64035;48.358;2.122;2023-03-14T00:07:40;98752.53;;;10.44;83.44
75455;BME280;64035;48.358;2.122;2023-03-14T00:08:44;98748.22;;;10.42;83.59
75455;BME280;64035;48.358;2.122;2023-03-14T00:09:47;98746.56;;;10.45;83.73
75455;BME280;64035;48.358;2.122;2023-03-14T00:10:50;98749.13;;;10.45;83.46
75455;BME280;64035;48.358;2.122;2023-03-14T00:11:53;98745.69;;;10.43;83.89
75455;BME280;64035;48.358;2.122;2023-03-14T00:12:56;98737.16;;;10.43;83.71
75455;BME280;64035;48.358;2.122;2023-03-14T00:13:59;98744.81;;;10.43;83.64
75455;BME280;64035;48.358;2.122;2023-03-14T00:15:03;98744.81;;;10.43;83.65
75455;BME280;64035;48.358;2.122;2023-03-14T00:16:13;98734.56;;;10.41;83.66
75455;BME280;64035;48.358;2.122;2023-03-14T00:17:16;98726.06;;;10.42;83.89
75455;BME280;64035;48.358;2.122;2023-03-14T00:18:19;98737.09;;;10.41;83.88
75455;BME280;64035;48.358;2.122;2023-03-14T00:19:22;98734.50;;;10.40;83.97
75455;BME280;64035;48.358;2.122;2023-03-14T00:20:25;98727.75;;;10.42;83.62
75455;BME280;64035;48.358;2.122;2023-03-14T00:21:29;98727.75;;;10.42;83.50
75455;BME280;64035;48.358;2.122;2023-03-14T00:22:32;98730.31;;;10.42;83.67
75455;BME280;64035;48.358;2.122;2023-03-14T00:23:36;98728.59;;;10.42;83.81
75455;BME280;64035;48.358;2.122;2023-03-14T00:24:39;98732.91;;;10.43;83.43
75455;BME280;64035;48.358;2.122;2023-03-14T00:25:42;98723.50;;;10.42;83.70
75455;BME280;64035;48.358;2.122;2023-03-14T00:26:45;98720.97;;;10.44;83.65
75455;BME280;64035;48.358;2.122;2023-03-14T00:27:50;98719.25;;;10.43;83.79
75455;BME280;64035;48.358;2.122;2023-03-14T00:28:54;98721.75;;;10.41;83.52
75455;BME280;64035;48.358;2.122;2023-03-14T00:29:57;98728.56;;;10.41;83.61
75455;BME280;64035;48.358;2.122;2023-03-14T00:31:04;98730.31;;;10.42;83.64
75455;BME280;64035;48.358;2.122;2023-03-14T00:32:07;98717.50;;;10.42;83.41
75455;BME280;64035;48.358;2.122;2023-03-14T00:33:10;98711.56;;;10.43;83.71
75455;BME280;64035;48.358;2.122;2023-03-14T00:34:13;98715.81;;;10.42;83.56
75455;BME280;64035;48.358;2.122;2023-03-14T00:35:16;98717.44;;;10.37;83.96
75455;BME280;64035;48.358;2.122;2023-03-14T00:36:20;98715.75;;;10.39;83.73
75455;BME280;64035;48.358;2.122;2023-03-14T00:37:24;98714.91;;;10.40;83.42
75455;BME280;64035;48.358;2.122;2023-03-14T00:38:27;98708.94;;;10.40;83.73
75455;BME280;64035;48.358;2.122;2023-03-14T00:39:30;98712.34;;;10.40;83.57
75455;BME280;64035;48.358;2.122;2023-03-14T00:40:33;98705.50;;;10.39;83.69
75455;BME280;64035;48.358;2.122;2023-03-14T00:41:36;98702.13;;;10.40;83.70
75455;BME280;64035;48.358;2.122;2023-03-14T00:42:39;98699.53;;;10.39;83.51
75455;BME280;64035;48.358;2.122;2023-03-14T00:43:42;98697.00;;;10.40;83.94
75455;BME280;64035;48.358;2.122;2023-03-14T00:44:46;98697.00;;;10.40;83.77
75455;BME280;64035;48.358;2.122;2023-03-14T00:45:50;98695.31;;;10.41;83.72
75455;BME280;64035;48.358;2.122;2023-03-14T00:46:53;98697.88;;;10.41;83.77
75455;BME280;64035;48.358;2.122;2023-03-14T00:47:57;98692.69;;;10.38;83.70
75455;BME280;64035;48.358;2.122;2023-03-14T00:49:01;98692.72;;;10.39;83.73
75455;BME280;64035;48.358;2.122;2023-03-14T00:50:04;98691.03;;;10.40;83.80
75455;BME280;64035;48.358;2.122;2023-03-14T00:51:08;98697.84;;;10.39;83.72
75455;BME280;64035;48.358;2.122;2023-03-14T00:52:11;98692.72;;;10.39;83.73
75455;BME280;64035;48.358;2.122;2023-03-14T00:53:15;98689.31;;;10.39;84.07
75455;BME280;64035;48.358;2.122;2023-03-14T00:54:20;98689.25;;;10.36;83.62
75455;BME280;64035;48.358;2.122;2023-03-14T00:55:23;98696.97;;;10.37;83.55
75455;BME280;64035;48.358;2.122;2023-03-14T00:56:26;98696.09;;;10.37;84.28
75455;BME280;64035;48.358;2.122;2023-03-14T00:57:29;98691.00;;;10.37;83.75
75455;BME280;64035;48.358;2.122;2023-03-14T00:58:32;98696.09;;;10.37;83.80
75455;BME280;64035;48.358;2.122;2023-03-14T00:59:35;98701.22;;;10.37;83.65
75455;BME280;64035;48.358;2.122;2023-03-14T01:00:38;98694.38;;;10.36;83.58
75455;BME280;64035;48.358;2.122;2023-03-14T01:01:41;98700.31;;;10.35;83.82
75455;BME280;64035;48.358;2.122;2023-03-14T01:02:44;98703.69;;;10.34;83.54
75455;BME280;64035;48.358;2.122;2023-03-14T01:03:51;98703.66;;;10.32;83.77
75455;BME280;64035;48.358;2.122;2023-03-14T01:04:54;98707.13;;;10.34;83.56
75455;BME280;64035;48.358;2.122;2023-03-14T01:06:12;98713.97;;;10.35;83.97
75455;BME280;64035;48.358;2.122;2023-03-14T01:07:16;98700.34;;;10.36;83.75
75455;BME280;64035;48.358;2.122;2023-03-14T01:08:19;98706.34;;;10.38;83.75
75455;BME280;64035;48.358;2.122;2023-03-14T01:09:22;98696.97;;;10.37;83.64
75455;BME280;64035;48.358;2.122;2023-03-14T01:10:26;98703.75;;;10.35;83.77
75455;BME280;64035;48.358;2.122;2023-03-14T01:11:34;98696.97;;;10.37;83.54
75455;BME280;64035;48.358;2.122;2023-03-14T01:12:37;98694.41;;;10.37;83.70
75455;BME280;64035;48.358;2.122;2023-03-14T01:13:41;98694.38;;;10.36;83.65
75455;BME280;64035;48.358;2.122;2023-03-14T01:14:44;98697.75;;;10.35;83.71
75455;BME280;64035;48.358;2.122;2023-03-14T01:15:47;98697.75;;;10.35;83.92
75455;BME280;64035;48.358;2.122;2023-03-14T01:16:49;98691.78;;;10.34;83.47
75455;BME280;64035;48.358;2.122;2023-03-14T01:17:52;98701.22;;;10.37;83.80
75455;BME280;64035;48.358;2.122;2023-03-14T01:18:56;98702.91;;;10.36;83.70
75455;BME280;64035;48.358;2.122;2023-03-14T01:19:59;98698.66;;;10.37;83.74
75455;BME280;64035;48.358;2.122;2023-03-14T01:21:09;98701.22;;;10.37;84.20
75455;BME280;64035;48.358;2.122;2023-03-14T01:22:12;98696.97;;;10.37;84.11
75455;BME280;64035;48.358;2.122;2023-03-14T01:23:15;98693.53;;;10.37;83.86
75455;BME280;64035;48.358;2.122;2023-03-14T01:24:18;98691.84;;;10.37;83.85
75455;BME280;64035;48.358;2.122;2023-03-14T01:25:21;98696.09;;;10.38;83.83
75455;BME280;64035;48.358;2.122;2023-03-14T01:26:26;98678.22;;;10.38;83.98
75455;BME280;64035;48.358;2.122;2023-03-14T01:27:29;98701.25;;;10.40;83.74
75455;BME280;64035;48.358;2.122;2023-03-14T01:28:33;98690.16;;;10.39;83.87
75455;BME280;64035;48.358;2.122;2023-03-14T01:29:37;98679.91;;;10.38;84.11
75455;BME280;64035;48.358;2.122;2023-03-14T01:30:40;98693.56;;;10.38;84.17
75455;BME280;64035;48.358;2.122;2023-03-14T01:31:43;98707.25;;;10.40;83.78
75455;BME280;64035;48.358;2.122;2023-03-14T01:32:47;98700.41;;;10.39;83.89
75455;BME280;64035;48.358;2.122;2023-03-14T01:33:50;98696.09;;;10.38;84.39
75455;BME280;64035;48.358;2.122;2023-03-14T01:34:53;98688.44;;;10.38;84.24
75455;BME280;64035;48.358;2.122;2023-03-14T01:35:57;98697.00;;;10.40;84.19
75455;BME280;64035;48.358;2.122;2023-03-14T01:37:00;98697.84;;;10.39;84.02
75455;BME280;64035;48.358;2.122;2023-03-14T01:38:03;98696.19;;;10.41;83.88
75455;BME280;64035;48.358;2.122;2023-03-14T01:39:06;98693.72;;;10.44;83.97
75455;BME280;64035;48.358;2.122;2023-03-14T01:40:10;98704.72;;;10.42;84.09
75455;BME280;64035;48.358;2.122;2023-03-14T01:41:19;98709.00;;;10.43;84.27
75455;BME280;64035;48.358;2.122;2023-03-14T01:42:23;98703.06;;;10.44;83.97
75455;BME280;64035;48.358;2.122;2023-03-14T01:43:27;98704.75;;;10.43;84.04
75455;BME280;64035;48.358;2.122;2023-03-14T01:44:52;98701.38;;;10.46;83.95
75455;BME280;64035;48.358;2.122;2023-03-14T01:46:58;98705.63;;;10.45;83.94
75455;BME280;64035;48.358;2.122;2023-03-14T01:48:01;98704.81;;;10.46;83.85
75455;BME280;64035;48.358;2.122;2023-03-14T01:49:13;98703.97;;;10.47;83.98
75455;BME280;64035;48.358;2.122;2023-03-14T01:50:19;98712.53;;;10.48;84.04
75455;BME280;64035;48.358;2.122;2023-03-14T01:51:41;98709.09;;;10.47;84.06
75455;BME280;64035;48.358;2.122;2023-03-14T01:52:46;98711.72;;;10.50;84.13
75455;BME280;64035;48.358;2.122;2023-03-14T01:53:59;98705.72;;;10.48;83.92
75455;BME280;64035;48.358;2.122;2023-03-14T01:55:09;98699.72;;;10.48;84.02
75455;BME280;64035;48.358;2.122;2023-03-14T01:56:16;98701.47;;;10.49;84.24
75455;BME280;64035;48.358;2.122;2023-03-14T01:57:23;98706.53;;;10.47;84.11
75455;BME280;64035;48.358;2.122;2023-03-14T01:58:30;98710.81;;;10.48;84.41
75455;BME280;64035;48.358;2.122;2023-03-14T01:59:38;98718.50;;;10.48;84.42
75455;BME280;64035;48.358;2.122;2023-03-14T02:00:43;98720.19;;;10.48;84.46
75455;BME280;64035;48.358;2.122;2023-03-14T02:01:47;98718.50;;;10.48;84.43
75455;BME280;64035;48.358;2.122;2023-03-14T02:03:05;98719.38;;;10.49;84.30
75455;BME280;64035;48.358;2.122;2023-03-14T02:04:11;98721.94;;;10.49;83.98
75455;BME280;64035;48.358;2.122;2023-03-14T02:05:23;98720.22;;;10.49;84.23
75455;BME280;64035;48.358;2.122;2023-03-14T02:06:42;98717.69;;;10.49;84.45
75455;BME280;64035;48.358;2.122;2023-03-14T02:07:51;98718.50;;;10.48;84.43
75455;BME280;64035;48.358;2.122;2023-03-14T02:09:00;98715.06;;;10.48;84.28
75455;BME280;64035;48.358;2.122;2023-03-14T02:10:09;98717.69;;;10.49;84.46
75455;BME280;64035;48.358;2.122;2023-03-14T02:11:12;98709.19;;;10.50;84.43
75455;BME280;64035;48.358;2.122;2023-03-14T02:12:25;98713.41;;;10.50;84.28
75455;BME280;64035;48.358;2.122;2023-03-14T02:13:46;98719.38;;;10.49;84.52
75455;BME280;64035;48.358;2.122;2023-03-14T02:15:09;98720.28;;;10.51;84.45
75455;BME280;64035;48.358;2.122;2023-03-14T02:16:28;98719.41;;;10.52;84.46
75455;BME280;64035;48.358;2.122;2023-03-14T02:17:47;98723.66;;;10.50;84.48
75455;BME280;64035;48.358;2.122;2023-03-14T02:19:22;98705.78;;;10.51;84.40
75455;BME280;64035;48.358;2.122;2023-03-14T02:22:48;98705.78;;;10.51;84.57
75455;BME280;64035;48.358;2.122;2023-03-14T02:25:05;98716.88;;;10.53;84.42
75455;BME280;64035;48.358;2.122;2023-03-14T02:26:16;98704.97;;;10.54;84.58
75455;BME280;64035;48.358;2.122;2023-03-14T02:27:22;98703.22;;;10.53;84.92
75455;BME280;64035;48.358;2.122;2023-03-14T02:28:26;98695.59;;;10.54;84.36
75455;BME280;64035;48.358;2.122;2023-03-14T02:29:36;98691.34;;;10.55;84.60
75455;BME280;64035;48.358;2.122;2023-03-14T02:30:41;98696.44;;;10.53;84.56
75455;BME280;64035;48.358;2.122;2023-03-14T02:31:44;98689.66;;;10.55;84.57
75455;BME280;64035;48.358;2.122;2023-03-14T02:32:49;98692.13;;;10.52;84.69
75455;BME280;64035;48.358;2.122;2023-03-14T02:33:56;98687.06;;;10.54;84.39
75455;BME280;64035;48.358;2.122;2023-03-14T02:35:05;98683.66;;;10.55;84.46
75455;BME280;64035;48.358;2.122;2023-03-14T02:36:13;98694.78;;;10.55;84.44
75455;BME280;64035;48.358;2.122;2023-03-14T02:37:19;98694.78;;;10.55;84.77
75455;BME280;64035;48.358;2.122;2023-03-14T02:38:33;98686.25;;;10.56;84.58
75455;BME280;64035;48.358;2.122;2023-03-14T02:39:41;98685.44;;;10.57;84.35
75455;BME280;64035;48.358;2.122;2023-03-14T02:40:46;98691.38;;;10.56;84.61
75455;BME280;64035;48.358;2.122;2023-03-14T02:41:50;98693.06;;;10.56;84.72
75455;BME280;64035;48.358;2.122;2023-03-14T02:42:53;98687.97;;;10.56;84.49
75455;BME280;64035;48.358;2.122;2023-03-14T02:43:56;98693.13;;;10.57;84.78
75455;BME280;64035;48.358;2.122;2023-03-14T02:46:22;98699.09;;;10.60;84.67
75455;BME280;64035;48.358;2.122;2023-03-14T02:47:28;98693.97;;;10.60;84.51
75455;BME280;64035;48.358;2.122;2023-03-14T02:48:43;98690.56;;;10.57;84.60
75455;BME280;64035;48.358;2.122;2023-03-14T02:49:51;98704.22;;;10.60;84.38
75455;BME280;64035;48.358;2.122;2023-03-14T02:50:59;98704.22;;;10.60;84.49
75455;BME280;64035;48.358;2.122;2023-03-14T02:52:03;98699.09;;;10.60;84.52
75455;BME280;64035;48.358;2.122;2023-03-14T02:53:07;98704.22;;;10.60;84.61
75455;BME280;64035;48.358;2.122;2023-03-14T02:54:10;98706.78;;;10.60;84.44
75455;BME280;64035;48.358;2.122;2023-03-14T02:55:14;98703.38;;;10.61;84.81
75455;BME280;64035;48.358;2.122;2023-03-14T02:56:20;98708.47;;;10.59;84.73
75455;BME280;64035;48.358;2.122;2023-03-14T02:57:23;98699.97;;;10.60;84.43
75455;BME280;64035;48.358;2.122;2023-03-14T02:58:27;98714.53;;;10.63;84.60
75455;BME280;64035;48.358;2.122;2023-03-14T02:59:36;98706.81;;;10.61;84.77
75455;BME280;64035;48.358;2.122;2023-03-14T03:00:46;98713.66;;;10.62;84.27
75455;BME280;64035;48.358;2.122;2023-03-14T03:01:49;98717.09;;;10.63;84.45
75455;BME280;64035;48.358;2.122;2023-03-14T03:02:53;98714.53;;;10.63;84.59
75455;BME280;64035;48.358;2.122;2023-03-14T03:03:56;98711.09;;;10.62;84.55
75455;BME280;64035;48.358;2.122;2023-03-14T03:04:59;98710.28;;;10.63;84.46
75455;BME280;64035;48.358;2.122;2023-03-14T03:06:03;98711.97;;;10.63;84.74
75455;BME280;64035;48.358;2.122;2023-03-14T03:07:06;98710.19;;;10.60;84.74
75455;BME280;64035;48.358;2.122;2023-03-14T03:08:10;98728.97;;;10.61;84.67
75455;BME280;64035;48.358;2.122;2023-03-14T03:09:13;98717.00;;;10.60;85.04
75455;BME280;64035;48.358;2.122;2023-03-14T03:10:16;98726.41;;;10.61;84.87
75455;BME280;64035;48.358;2.122;2023-03-14T03:11:20;98717.03;;;10.61;84.71
75455;BME280;64035;48.358;2.122;2023-03-14T03:12:23;98720.44;;;10.60;84.77
75455;BME280;64035;48.358;2.122;2023-03-14T03:13:26;98733.25;;;10.62;84.72
75455;BME280;64035;48.358;2.122;2023-03-14T03:14:31;98729.88;;;10.63;84.67
75455;BME280;64035;48.358;2.122;2023-03-14T03:15:38;98718.75;;;10.61;84.76
75455;BME280;64035;48.358;2.122;2023-03-14T03:16:41;98731.56;;;10.62;84.83
75455;BME280;64035;48.358;2.122;2023-03-14T03:17:44;98731.56;;;10.62;84.86
75455;BME280;64035;48.358;2.122;2023-03-14T03:18:47;98735.00;;;10.63;84.94
75455;BME280;64035;48.358;2.122;2023-03-14T03:19:50;98737.56;;;10.63;85.02
75455;BME280;64035;48.358;2.122;2023-03-14T03:20:54;98733.25;;;10.62;84.83
75455;BME280;64035;48.358;2.122;2023-03-14T03:21:59;98734.97;;;10.61;85.07
75455;BME280;64035;48.358;2.122;2023-03-14T03:23:02;98731.53;;;10.61;85.00
75455;BME280;64035;48.358;2.122;2023-03-14T03:24:06;98718.75;;;10.61;84.98
75455;BME280;64035;48.358;2.122;2023-03-14T03:25:10;98736.66;;;10.61;85.05
75455;BME280;64035;48.358;2.122;2023-03-14T03:26:13;98740.03;;;10.60;85.25
75455;BME280;64035;48.358;2.122;2023-03-14T03:27:16;98740.06;;;10.61;85.05
75455;BME280;64035;48.358;2.122;2023-03-14T03:28:20;98741.75;;;10.61;85.04
75455;BME280;64035;48.358;2.122;2023-03-14T03:29:23;98740.94;;;10.62;84.99
75455;BME280;64035;48.358;2.122;2023-03-14T03:30:27;98737.50;;;10.61;84.73
75455;BME280;64035;48.358;2.122;2023-03-14T03:31:30;98740.13;;;10.63;85.06
75455;BME280;64035;48.358;2.122;2023-03-14T03:32:34;98743.53;;;10.63;84.85
75455;BME280;64035;48.358;2.122;2023-03-14T03:33:37;98745.28;;;10.64;84.91
75455;BME280;64035;48.358;2.122;2023-03-14T03:34:41;98743.53;;;10.63;85.16
75455;BME280;64035;48.358;2.122;2023-03-14T03:35:49;98748.69;;;10.65;85.19
75455;BME280;64035;48.358;2.122;2023-03-14T03:36:59;98757.22;;;10.65;85.33
75455;BME280;64035;48.358;2.122;2023-03-14T03:38:04;98741.00;;;10.65;84.92
75455;BME280;64035;48.358;2.122;2023-03-14T03:39:08;98740.19;;;10.66;85.13
75455;BME280;64035;48.358;2.122;2023-03-14T03:40:12;98749.56;;;10.67;85.07
75455;BME280;64035;48.358;2.122;2023-03-14T03:41:15;98752.13;;;10.67;84.70
75455;BME280;64035;48.358;2.122;2023-03-14T03:42:19;98748.72;;;10.68;84.73
75455;BME280;64035;48.358;2.122;2023-03-14T03:43:22;98748.72;;;10.68;84.74
75455;BME280;64035;48.358;2.122;2023-03-14T03:44:25;98748.72;;;10.68;85.08
75455;BME280;64035;48.358;2.122;2023-03-14T03:45:29;98753.00;;;10.67;84.95
75455;BME280;64035;48.358;2.122;2023-03-14T03:46:33;98740.19;;;10.66;85.04
75455;BME280;64035;48.358;2.122;2023-03-14T03:47:36;98748.69;;;10.65;85.05
75455;BME280;64035;48.358;2.122;2023-03-14T03:48:39;98747.88;;;10.66;85.16
75455;BME280;64035;48.358;2.122;2023-03-14T03:49:44;98741.03;;;10.66;85.09
75455;BME280;64035;48.358;2.122;2023-03-14T03:50:47;98754.69;;;10.65;84.98
75455;BME280;64035;48.358;2.122;2023-03-14T03:51:54;98750.44;;;10.67;85.12
75455;BME280;64035;48.358;2.122;2023-03-14T03:52:57;98749.56;;;10.67;85.21
75455;BME280;64035;48.358;2.122;2023-03-14T03:54:00;98753.00;;;10.67;85.14
75455;BME280;64035;48.358;2.122;2023-03-14T03:55:07;98760.66;;;10.67;85.09
75455;BME280;64035;48.358;2.122;2023-03-14T03:56:10;98757.25;;;10.67;85.35
75455;BME280;64035;48.358;2.122;2023-03-14T03:57:14;98756.38;;;10.66;85.23
75455;BME280;64035;48.358;2.122;2023-03-14T03:58:17;98752.97;;;10.66;85.14
75455;BME280;64035;48.358;2.122;2023-03-14T03:59:20;98751.28;;;10.68;85.06
75455;BME280;64035;48.358;2.122;2023-03-14T04:00:24;98766.59;;;10.66;85.04
75455;BME280;64035;48.358;2.122;2023-03-14T04:01:27;98754.69;;;10.67;85.42
75455;BME280;64035;48.358;2.122;2023-03-14T04:02:33;98761.50;;;10.66;85.27
75455;BME280;64035;48.358;2.122;2023-03-14T04:03:37;98764.91;;;10.67;85.32
75455;BME280;64035;48.358;2.122;2023-03-14T04:04:43;98764.91;;;10.67;85.12
75455;BME280;64035;48.358;2.122;2023-03-14T04:05:46;98763.22;;;10.66;85.48
75455;BME280;64035;48.358;2.122;2023-03-14T04:06:49;98764.03;;;10.66;85.50
75455;BME280;64035;48.358;2.122;2023-03-14T04:07:52;98758.97;;;10.68;85.07
75455;BME280;64035;48.358;2.122;2023-03-14T04:09:00;98763.25;;;10.69;85.20
75455;BME280;64035;48.358;2.122;2023-03-14T04:10:36;98767.47;;;10.67;85.39
75455;BME280;64035;48.358;2.122;2023-03-14T04:11:48;98774.31;;;10.68;85.17
75455;BME280;64035;48.358;2.122;2023-03-14T04:13:10;98770.94;;;10.69;85.01
75455;BME280;64035;48.358;2.122;2023-03-14T04:14:15;98771.81;;;10.69;85.20
75455;BME280;64035;48.358;2.122;2023-03-14T04:15:19;98774.34;;;10.69;85.39
75455;BME280;64035;48.358;2.122;2023-03-14T04:16:25;98774.31;;;10.68;85.17
75455;BME280;64035;48.358;2.122;2023-03-14T04:17:31;98775.16;;;10.67;85.51
75455;BME280;64035;48.358;2.122;2023-03-14T04:18:34;98780.31;;;10.68;85.47
75455;BME280;64035;48.358;2.122;2023-03-14T04:19:37;98777.78;;;10.70;85.22
75455;BME280;64035;48.358;2.122;2023-03-14T04:20:40;98781.22;;;10.70;85.12
75455;BME280;64035;48.358;2.122;2023-03-14T04:21:43;98783.78;;;10.70;85.26
75455;BME280;64035;48.358;2.122;2023-03-14T04:22:48;98786.34;;;10.70;84.88
75455;BME280;64035;48.358;2.122;2023-03-14T04:23:51;98790.63;;;10.71;85.23
75455;BME280;64035;48.358;2.122;2023-03-14T04:24:55;98791.50;;;10.72;85.23
75455;BME280;64035;48.358;2.122;2023-03-14T04:25:58;98793.13;;;10.70;85.47
75455;BME280;64035;48.358;2.122;2023-03-14T04:27:02;98790.59;;;10.70;85.45
75455;BME280;64035;48.358;2.122;2023-03-14T04:28:05;98798.28;;;10.71;85.48
75455;BME280;64035;48.358;2.122;2023-03-14T04:29:08;98799.16;;;10.72;85.22
75455;BME280;64035;48.358;2.122;2023-03-14T04:30:12;98798.25;;;10.70;85.23
75455;BME280;64035;48.358;2.122;2023-03-14T04:31:23;98798.25;;;10.70;85.27
75455;BME280;64035;48.358;2.122;2023-03-14T04:32:27;98800.84;;;10.71;85.26
75455;BME280;64035;48.358;2.122;2023-03-14T04:33:30;98805.97;;;10.71;85.54
75455;BME280;64035;48.358;2.122;2023-03-14T04:34:34;98806.81;;;10.70;85.56
75455;BME280;64035;48.358;2.122;2023-03-14T04:35:37;98804.25;;;10.70;85.55
75455;BME280;64035;48.358;2.122;2023-03-14T04:36:45;98805.09;;;10.71;85.26
75455;BME280;64035;48.358;2.122;2023-03-14T04:37:53;98812.78;;;10.71;85.39
75455;BME280;64035;48.358;2.122;2023-03-14T04:38:58;98813.69;;;10.73;85.29
75455;BME280;64035;48.358;2.122;2023-03-14T04:40:02;98811.13;;;10.74;85.33
75455;BME280;64035;48.358;2.122;2023-03-14T04:41:10;98822.22;;;10.73;85.44
75455;BME280;64035;48.358;2.122;2023-03-14T04:42:13;98813.69;;;10.73;85.39
75455;BME280;64035;48.358;2.122;2023-03-14T04:43:16;98822.22;;;10.73;85.55
75455;BME280;64035;48.358;2.122;2023-03-14T04:44:24;98823.94;;;10.73;85.35
75455;BME280;64035;48.358;2.122;2023-03-14T04:45:30;98825.63;;;10.72;85.32
75455;BME280;64035;48.358;2.122;2023-03-14T04:46:35;98828.19;;;10.74;85.25
75455;BME280;64035;48.358;2.122;2023-03-14T04:47:40;98836.72;;;10.73;85.42
75455;BME280;64035;48.358;2.122;2023-03-14T04:48:44;98840.97;;;10.74;85.43
75455;BME280;64035;48.358;2.122;2023-03-14T04:49:47;98845.28;;;10.75;85.32
75455;BME280;64035;48.358;2.122;2023-03-14T04:50:52;98838.41;;;10.72;85.59
75455;BME280;64035;48.358;2.122;2023-03-14T04:51:55;98852.09;;;10.74;85.25
75455;BME280;64035;48.358;2.122;2023-03-14T04:53:01;98864.06;;;10.75;85.29
75455;BME280;64035;48.358;2.122;2023-03-14T04:54:04;98858.94;;;10.75;85.20
75455;BME280;64035;48.358;2.122;2023-03-14T04:55:07;98870.84;;;10.73;85.64
75455;BME280;64035;48.358;2.122;2023-03-14T04:56:11;98860.63;;;10.73;85.67
75455;BME280;64035;48.358;2.122;2023-03-14T04:57:16;98870.00;;;10.74;85.70
75455;BME280;64035;48.358;2.122;2023-03-14T04:58:19;98872.56;;;10.73;85.51
75455;BME280;64035;48.358;2.122;2023-03-14T04:59:25;98883.66;;;10.75;85.53
75455;BME280;64035;48.358;2.122;2023-03-14T05:00:31;98882.78;;;10.74;85.65
75455;BME280;64035;48.358;2.122;2023-03-14T05:01:35;98893.84;;;10.72;85.62
75455;BME280;64035;48.358;2.122;2023-03-14T05:02:53;98899.78;;;10.71;85.55
75455;BME280;64035;48.358;2.122;2023-03-14T05:03:59;98927.06;;;10.70;85.34
75455;BME280;64035;48.358;2.122;2023-03-14T05:05:22;98933.88;;;10.70;85.38
75455;BME280;64035;48.358;2.122;2023-03-14T05:06:48;98933.00;;;10.69;85.04
75455;BME280;64035;48.358;2.122;2023-03-14T05:08:21;98948.28;;;10.66;84.91
75455;BME280;64035;48.358;2.122;2023-03-14T05:09:47;98944.03;;;10.67;85.19
75455;BME280;64035;48.358;2.122;2023-03-14T05:11:10;98949.16;;;10.67;85.15
75455;BME280;64035;48.358;2.122;2023-03-14T05:12:36;98960.13;;;10.61;84.38
75455;BME280;64035;48.358;2.122;2023-03-14T05:13:59;98953.25;;;10.60;84.28
75455;BME280;64035;48.358;2.122;2023-03-14T05:15:19;98986.53;;;10.60;84.91
75455;BME280;64035;48.358;2.122;2023-03-14T05:16:41;98970.25;;;10.56;84.34
75455;BME280;64035;48.358;2.122;2023-03-14T05:17:56;98990.66;;;10.55;84.35
75455;BME280;64035;48.358;2.122;2023-03-14T05:19:13;98992.31;;;10.51;84.51
75455;BME280;64035;48.358;2.122;2023-03-14T05:20:35;98999.94;;;10.50;84.04
75455;BME280;64035;48.358;2.122;2023-03-14T05:21:57;99005.88;;;10.49;83.80
75455;BME280;64035;48.358;2.122;2023-03-14T05:23:16;99010.91;;;10.46;83.70
75455;BME280;64035;48.358;2.122;2023-03-14T05:24:44;99023.63;;;10.43;83.48
75455;BME280;64035;48.358;2.122;2023-03-14T05:26:14;99026.09;;;10.40;83.86
75455;BME280;64035;48.358;2.122;2023-03-14T05:27:42;99030.28;;;10.38;83.55
75455;BME280;64035;48.358;2.122;2023-03-14T05:29:05;99037.09;;;10.36;83.64
75455;BME280;64035;48.358;2.122;2023-03-14T05:30:22;99054.16;;;10.37;83.80
75455;BME280;64035;48.358;2.122;2023-03-14T05:31:48;99049.78;;;10.33;83.36
75455;BME280;64035;48.358;2.122;2023-03-14T05:33:17;99055.66;;;10.29;83.04
75455;BME280;64035;48.358;2.122;2023-03-14T05:34:39;99054.75;;;10.27;83.21
75455;BME280;64035;48.358;2.122;2023-03-14T05:35:59;99063.13;;;10.21;82.77
75455;BME280;64035;48.358;2.122;2023-03-14T05:37:34;99065.56;;;10.18;82.95
75455;BME280;64035;48.358;2.122;2023-03-14T05:38:59;99066.28;;;10.14;82.93
75455;BME280;64035;48.358;2.122;2023-03-14T05:40:20;99079.81;;;10.10;82.82
75455;BME280;64035;48.358;2.122;2023-03-14T05:41:33;99083.22;;;10.10;83.16
75455;BME280;64035;48.358;2.122;2023-03-14T05:43:03;99087.31;;;10.04;82.90
75455;BME280;64035;48.358;2.122;2023-03-14T05:44:32;99100.84;;;10.01;82.67
75455;BME280;64035;48.358;2.122;2023-03-14T05:45:43;99109.31;;;9.99;82.50
75455;BME280;64035;48.358;2.122;2023-03-14T05:46:59;99114.44;;;9.99;82.54
75455;BME280;64035;48.358;2.122;2023-03-14T05:48:39;99124.50;;;9.94;82.35
75455;BME280;64035;48.358;2.122;2023-03-14T05:50:14;99133.78;;;9.91;82.52
75455;BME280;64035;48.358;2.122;2023-03-14T05:51:50;99133.75;;;9.89;82.66
75455;BME280;64035;48.358;2.122;2023-03-14T05:53:01;99141.22;;;9.83;82.06
75455;BME280;64035;48.358;2.122;2023-03-14T05:54:18;99147.09;;;9.80;82.00
75455;BME280;64035;48.358;2.122;2023-03-14T05:55:21;99148.59;;;9.74;82.05
75455;BME280;64035;48.358;2.122;2023-03-14T05:56:59;99168.06;;;9.69;80.94
75455;BME280;64035;48.358;2.122;2023-03-14T05:58:25;99164.19;;;9.55;79.52
75455;BME280;64035;48.358;2.122;2023-03-14T05:59:55;99180.34;;;9.54;80.58
75455;BME280;64035;48.358;2.122;2023-03-14T06:01:16;99167.44;;;9.49;80.57
75455;BME280;64035;48.358;2.122;2023-03-14T06:02:37;99172.44;;;9.46;80.97
75455;BME280;64035;48.358;2.122;2023-03-14T06:03:49;99186.00;;;9.44;80.46
75455;BME280;64035;48.358;2.122;2023-03-14T06:04:52;99189.31;;;9.41;80.55